sensor_id;sensor_type;location;lat;lon;timestamp;temperature;humidity
51825;DHT22;37879;52.986;6.282;2023-05-28T00:00:07;11.00;99.90
51825;DHT22;37879;52.986;6.282;2023-05-28T00:02:34;11.00;99.90
51825;DHT22;37879;52.986;6.282;2023-05-28T00:05:00;11.00;99.90
51825;DHT22;37879;52.986;6.282;2023-05-28T00:07:26;11.10;99.90
51825;DHT22;37879;52.986;6.282;2023-05-28T00:10:00;11.10;99.90
51825;DHT22;37879;52.986;6.282;2023-05-28T00:12:25;11.40;99.90
51825;DHT22;37879;52.986;6.282;2023-05-28T00:14:51;11.10;99.90
51825;DHT22;37879;52.986;6.282;2023-05-28T00:17:17;11.10;99.90
51825;DHT22;37879;52.986;6.282;2023-05-28T00:19:44;11.10;99.90
51825;DHT22;37879;52.986;6.282;2023-05-28T00:22:10;11.10;99.90
51825;DHT22;37879;52.986;6.282;2023-05-28T00:24:36;11.00;99.90
51825;DHT22;37879;52.986;6.282;2023-05-28T00:27:02;11.00;99.90
51825;DHT22;37879;52.986;6.282;2023-05-28T00:29:29;11.00;99.90
51825;DHT22;37879;52.986;6.282;2023-05-28T00:31:54;11.00;99.90
51825;DHT22;37879;52.986;6.282;2023-05-28T00:34:22;11.00;99.90
51825;DHT22;37879;52.986;6.282;2023-05-28T00:36:47;11.10;99.90
51825;DHT22;37879;52.986;6.282;2023-05-28T00:39:15;11.00;99.90
51825;DHT22;37879;52.986;6.282;2023-05-28T00:41:40;11.00;99.90
51825;DHT22;37879;52.986;6.282;2023-05-28T00:44:06;11.00;99.90
51825;DHT22;37879;52.986;6.282;2023-05-28T00:46:35;11.00;99.90
51825;DHT22;37879;52.986;6.282;2023-05-28T00:49:01;11.10;99.90
51825;DHT22;37879;52.986;6.282;2023-05-28T00:51:27;11.00;99.90
51825;DHT22;37879;52.986;6.282;2023-05-28T00:53:53;10.90;99.90
51825;DHT22;37879;52.986;6.282;2023-05-28T00:56:19;11.00;99.90
51825;DHT22;37879;52.986;6.282;2023-05-28T00:58:48;10.90;99.90
51825;DHT22;37879;52.986;6.282;2023-05-28T01:01:14;10.90;99.90
51825;DHT22;37879;52.986;6.282;2023-05-28T01:03:40;10.90;99.90
51825;DHT22;37879;52.986;6.282;2023-05-28T01:06:11;10.90;99.90
51825;DHT22;37879;52.986;6.282;2023-05-28T01:08:38;10.90;99.90
51825;DHT22;37879;52.986;6.282;2023-05-28T01:11:09;10.90;99.90
51825;DHT22;37879;52.986;6.282;2023-05-28T01:13:36;10.90;99.90
51825;DHT22;37879;52.986;6.282;2023-05-28T01:16:03;10.90;99.90
51825;DHT22;37879;52.986;6.282;2023-05-28T01:18:30;10.90;99.90
51825;DHT22;37879;52.986;6.282;2023-05-28T01:21:00;11.00;99.90
51825;DHT22;37879;52.986;6.282;2023-05-28T01:23:44;11.10;99.90
51825;DHT22;37879;52.986;6.282;2023-05-28T01:26:15;10.90;99.90
51825;DHT22;37879;52.986;6.282;2023-05-28T01:28:47;10.90;99.90
51825;DHT22;37879;52.986;6.282;2023-05-28T01:31:14;10.90;99.90
51825;DHT22;37879;52.986;6.282;2023-05-28T01:33:40;10.90;99.90
51825;DHT22;37879;52.986;6.282;2023-05-28T01:36:23;11.00;99.90
51825;DHT22;37879;52.986;6.282;2023-05-28T01:38:52;10.90;99.90
51825;DHT22;37879;52.986;6.282;2023-05-28T01:41:19;10.90;99.90
51825;DHT22;37879;52.986;6.282;2023-05-28T01:43:45;10.90;99.90
51825;DHT22;37879;52.986;6.282;2023-05-28T01:46:12;10.90;99.90
51825;DHT22;37879;52.986;6.282;2023-05-28T01:48:38;10.80;99.90
51825;DHT22;37879;52.986;6.282;2023-05-28T01:51:04;10.80;99.90
51825;DHT22;37879;52.986;6.282;2023-05-28T01:53:30;10.90;99.90
51825;DHT22;37879;52.986;6.282;2023-05-28T01:55:56;10.80;99.90
51825;DHT22;37879;52.986;6.282;2023-05-28T01:58:25;10.80;99.90
51825;DHT22;37879;52.986;6.282;2023-05-28T02:01:44;10.80;99.90
51825;DHT22;37879;52.986;6.282;2023-05-28T02:03:45;10.80;99.90
51825;DHT22;37879;52.986;6.282;2023-05-28T02:06:10;10.80;99.90
51825;DHT22;37879;52.986;6.282;2023-05-28T02:08:36;10.80;99.90
51825;DHT22;37879;52.986;6.282;2023-05-28T02:11:02;11.20;99.90
51825;DHT22;37879;52.986;6.282;2023-05-28T02:13:27;10.80;99.90
51825;DHT22;37879;52.986;6.282;2023-05-28T02:15:56;10.80;99.90
51825;DHT22;37879;52.986;6.282;2023-05-28T02:18:22;10.80;99.90
51825;DHT22;37879;52.986;6.282;2023-05-28T02:20:48;10.80;99.90
51825;DHT22;37879;52.986;6.282;2023-05-28T02:23:13;10.80;99.90
51825;DHT22;37879;52.986;6.282;2023-05-28T02:25:39;10.80;99.90
51825;DHT22;37879;52.986;6.282;2023-05-28T02:28:05;11.60;99.90
51825;DHT22;37879;52.986;6.282;2023-05-28T02:30:30;10.80;99.90
51825;DHT22;37879;52.986;6.282;2023-05-28T02:32:56;10.80;99.90
51825;DHT22;37879;52.986;6.282;2023-05-28T02:35:22;10.80;99.90
51825;DHT22;37879;52.986;6.282;2023-05-28T02:37:48;11.00;99.90
51825;DHT22;37879;52.986;6.282;2023-05-28T02:40:14;10.80;99.90
51825;DHT22;37879;52.986;6.282;2023-05-28T02:42:40;10.80;99.90
51825;DHT22;37879;52.986;6.282;2023-05-28T02:45:06;10.70;99.90
51825;DHT22;37879;52.986;6.282;2023-05-28T02:47:32;10.80;99.90
51825;DHT22;37879;52.986;6.282;2023-05-28T02:49:57;10.80;99.90
51825;DHT22;37879;52.986;6.282;2023-05-28T02:52:23;11.00;99.90
51825;DHT22;37879;52.986;6.282;2023-05-28T02:54:49;10.80;99.90
51825;DHT22;37879;52.986;6.282;2023-05-28T02:57:14;10.70;99.90
51825;DHT22;37879;52.986;6.282;2023-05-28T02:59:40;10.70;99.90
51825;DHT22;37879;52.986;6.282;2023-05-28T03:02:05;10.70;99.90
51825;DHT22;37879;52.986;6.282;2023-05-28T03:04:31;10.70;99.90
51825;DHT22;37879;52.986;6.282;2023-05-28T03:06:57;10.70;99.90
51825;DHT22;37879;52.986;6.282;2023-05-28T03:09:22;10.70;99.90
51825;DHT22;37879;52.986;6.282;2023-05-28T03:11:48;10.60;99.90
51825;DHT22;37879;52.986;6.282;2023-05-28T03:14:14;10.60;99.90
51825;DHT22;37879;52.986;6.282;2023-05-28T03:16:39;10.60;99.90
51825;DHT22;37879;52.986;6.282;2023-05-28T03:19:05;10.50;99.90
51825;DHT22;37879;52.986;6.282;2023-05-28T03:21:30;10.50;99.90
51825;DHT22;37879;52.986;6.282;2023-05-28T03:23:57;10.50;99.90
51825;DHT22;37879;52.986;6.282;2023-05-28T03:26:22;9.30;99.90
51825;DHT22;37879;52.986;6.282;2023-05-28T03:28:48;10.50;99.90
51825;DHT22;37879;52.986;6.282;2023-05-28T03:31:14;10.50;99.90
51825;DHT22;37879;52.986;6.282;2023-05-28T03:33:39;10.40;99.90
51825;DHT22;37879;52.986;6.282;2023-05-28T03:36:05;10.50;99.90
51825;DHT22;37879;52.986;6.282;2023-05-28T03:38:32;10.40;99.90
51825;DHT22;37879;52.986;6.282;2023-05-28T03:40:58;10.40;99.90
51825;DHT22;37879;52.986;6.282;2023-05-28T03:43:23;10.50;99.90
51825;DHT22;37879;52.986;6.282;2023-05-28T03:45:49;10.40;99.90
51825;DHT22;37879;52.986;6.282;2023-05-28T03:48:15;10.80;99.90
51825;DHT22;37879;52.986;6.282;2023-05-28T03:50:41;10.40;99.90
51825;DHT22;37879;52.986;6.282;2023-05-28T03:53:07;10.40;99.90
51825;DHT22;37879;52.986;6.282;2023-05-28T03:55:35;10.40;99.90
51825;DHT22;37879;52.986;6.282;2023-05-28T03:58:02;10.50;99.90
51825;DHT22;37879;52.986;6.282;2023-05-28T04:00:28;10.50;99.90
51825;DHT22;37879;52.986;6.282;2023-05-28T04:02:54;10.50;99.90
51825;DHT22;37879;52.986;6.282;2023-05-28T04:05:19;10.50;99.90
51825;DHT22;37879;52.986;6.282;2023-05-28T04:07:45;10.50;99.90
51825;DHT22;37879;52.986;6.282;2023-05-28T04:10:10;10.50;99.90
51825;DHT22;37879;52.986;6.282;2023-05-28T04:12:36;10.50;99.90
51825;DHT22;37879;52.986;6.282;2023-05-28T04:15:02;10.50;99.90
51825;DHT22;37879;52.986;6.282;2023-05-28T04:17:29;11.70;99.90
51825;DHT22;37879;52.986;6.282;2023-05-28T04:19:55;10.50;99.90
51825;DHT22;37879;52.986;6.282;2023-05-28T04:22:20;10.60;99.90
51825;DHT22;37879;52.986;6.282;2023-05-28T04:24:49;10.60;99.90
51825;DHT22;37879;52.986;6.282;2023-05-28T04:27:17;10.60;99.90
51825;DHT22;37879;52.986;6.282;2023-05-28T04:29:42;10.60;99.90
51825;DHT22;37879;52.986;6.282;2023-05-28T04:32:09;10.70;99.90
51825;DHT22;37879;52.986;6.282;2023-05-28T04:34:35;10.70;99.90
51825;DHT22;37879;52.986;6.282;2023-05-28T04:37:02;10.70;99.90
51825;DHT22;37879;52.986;6.282;2023-05-28T04:39:29;10.70;99.90
51825;DHT22;37879;52.986;6.282;2023-05-28T04:41:55;10.80;99.90
51825;DHT22;37879;52.986;6.282;2023-05-28T04:44:21;10.80;99.90
51825;DHT22;37879;52.986;6.282;2023-05-28T04:46:51;10.90;99.90
51825;DHT22;37879;52.986;6.282;2023-05-28T04:49:17;11.00;99.90
51825;DHT22;37879;52.986;6.282;2023-05-28T04:51:42;11.10;99.90
51825;DHT22;37879;52.986;6.282;2023-05-28T04:54:08;11.20;99.90
51825;DHT22;37879;52.986;6.282;2023-05-28T04:56:35;11.30;99.90
51825;DHT22;37879;52.986;6.282;2023-05-28T04:59:01;11.50;99.90
51825;DHT22;37879;52.986;6.282;2023-05-28T05:01:33;11.70;99.90
51825;DHT22;37879;52.986;6.282;2023-05-28T05:03:59;11.90;99.90
51825;DHT22;37879;52.986;6.282;2023-05-28T05:06:25;12.00;99.90
51825;DHT22;37879;52.986;6.282;2023-05-28T05:08:50;12.20;99.90
51825;DHT22;37879;52.986;6.282;2023-05-28T05:11:16;12.30;99.90
51825;DHT22;37879;52.986;6.282;2023-05-28T05:13:42;12.50;99.90
51825;DHT22;37879;52.986;6.282;2023-05-28T05:16:07;12.60;99.90
51825;DHT22;37879;52.986;6.282;2023-05-28T05:18:33;12.80;99.90
51825;DHT22;37879;52.986;6.282;2023-05-28T05:20:59;12.90;99.90
51825;DHT22;37879;52.986;6.282;2023-05-28T05:23:26;12.90;99.90
51825;DHT22;37879;52.986;6.282;2023-05-28T05:25:51;12.80;99.90
51825;DHT22;37879;52.986;6.282;2023-05-28T05:28:17;12.80;99.90
51825;DHT22;37879;52.986;6.282;2023-05-28T05:30:43;12.70;99.90
51825;DHT22;37879;52.986;6.282;2023-05-28T05:33:09;12.60;99.90
51825;DHT22;37879;52.986;6.282;2023-05-28T05:35:35;12.60;99.90
51825;DHT22;37879;52.986;6.282;2023-05-28T05:38:00;12.60;99.90
51825;DHT22;37879;52.986;6.282;2023-05-28T05:40:27;12.60;99.90
51825;DHT22;37879;52.986;6.282;2023-05-28T05:42:53;12.60;99.90
51825;DHT22;37879;52.986;6.282;2023-05-28T05:45:19;12.50;99.90
51825;DHT22;37879;52.986;6.282;2023-05-28T05:47:44;12.60;99.90
51825;DHT22;37879;52.986;6.282;2023-05-28T05:50:13;12.60;99.90
51825;DHT22;37879;52.986;6.282;2023-05-28T05:52:39;13.00;99.90
51825;DHT22;37879;52.986;6.282;2023-05-28T05:55:07;12.70;99.90
51825;DHT22;37879;52.986;6.282;2023-05-28T05:57:32;12.80;99.90
51825;DHT22;37879;52.986;6.282;2023-05-28T05:59:59;12.90;99.90
51825;DHT22;37879;52.986;6.282;2023-05-28T06:02:25;12.90;99.90
51825;DHT22;37879;52.986;6.282;2023-05-28T06:04:51;13.00;99.90
51825;DHT22;37879;52.986;6.282;2023-05-28T06:07:17;13.00;99.90
51825;DHT22;37879;52.986;6.282;2023-05-28T06:09:43;13.10;99.90
51825;DHT22;37879;52.986;6.282;2023-05-28T06:12:08;13.20;99.90
51825;DHT22;37879;52.986;6.282;2023-05-28T06:14:34;13.20;99.90
51825;DHT22;37879;52.986;6.282;2023-05-28T06:17:01;13.30;99.90
51825;DHT22;37879;52.986;6.282;2023-05-28T06:19:27;12.70;99.90
51825;DHT22;37879;52.986;6.282;2023-05-28T06:21:52;13.30;99.90
51825;DHT22;37879;52.986;6.282;2023-05-28T06:24:19;13.40;99.90
51825;DHT22;37879;52.986;6.282;2023-05-28T06:26:44;13.40;99.90
51825;DHT22;37879;52.986;6.282;2023-05-28T06:29:10;13.50;99.90
51825;DHT22;37879;52.986;6.282;2023-05-28T06:31:36;13.50;99.90
51825;DHT22;37879;52.986;6.282;2023-05-28T06:34:02;13.50;99.90
51825;DHT22;37879;52.986;6.282;2023-05-28T06:36:28;13.60;99.90
51825;DHT22;37879;52.986;6.282;2023-05-28T06:38:54;13.70;99.90
51825;DHT22;37879;52.986;6.282;2023-05-28T06:41:19;13.80;99.90
51825;DHT22;37879;52.986;6.282;2023-05-28T06:43:45;13.80;99.90
51825;DHT22;37879;52.986;6.282;2023-05-28T06:46:11;13.90;99.90
51825;DHT22;37879;52.986;6.282;2023-05-28T06:48:37;14.30;99.90
51825;DHT22;37879;52.986;6.282;2023-05-28T06:51:03;14.20;99.90
51825;DHT22;37879;52.986;6.282;2023-05-28T06:53:29;14.20;99.90
51825;DHT22;37879;52.986;6.282;2023-05-28T06:55:55;14.40;99.90
51825;DHT22;37879;52.986;6.282;2023-05-28T06:58:21;14.30;99.90
51825;DHT22;37879;52.986;6.282;2023-05-28T07:00:46;14.40;99.90
51825;DHT22;37879;52.986;6.282;2023-05-28T07:03:12;14.50;99.90
51825;DHT22;37879;52.986;6.282;2023-05-28T07:05:37;14.50;99.90
51825;DHT22;37879;52.986;6.282;2023-05-28T07:08:03;14.60;99.90
51825;DHT22;37879;52.986;6.282;2023-05-28T07:10:29;14.60;99.90
51825;DHT22;37879;52.986;6.282;2023-05-28T07:12:54;14.70;99.90
51825;DHT22;37879;52.986;6.282;2023-05-28T07:15:20;14.70;99.90
51825;DHT22;37879;52.986;6.282;2023-05-28T07:17:47;14.90;99.90
51825;DHT22;37879;52.986;6.282;2023-05-28T07:20:13;14.90;99.90
51825;DHT22;37879;52.986;6.282;2023-05-28T07:22:39;15.00;99.90
51825;DHT22;37879;52.986;6.282;2023-05-28T07:25:05;15.00;99.90
51825;DHT22;37879;52.986;6.282;2023-05-28T07:27:31;15.10;99.90
51825;DHT22;37879;52.986;6.282;2023-05-28T07:29:57;15.10;99.90
51825;DHT22;37879;52.986;6.282;2023-05-28T07:32:22;15.20;99.90
51825;DHT22;37879;52.986;6.282;2023-05-28T07:34:48;15.20;99.90
51825;DHT22;37879;52.986;6.282;2023-05-28T07:37:14;15.40;99.90
51825;DHT22;37879;52.986;6.282;2023-05-28T07:39:39;15.50;99.90
51825;DHT22;37879;52.986;6.282;2023-05-28T07:42:05;15.40;99.90
51825;DHT22;37879;52.986;6.282;2023-05-28T07:44:32;15.40;99.90
51825;DHT22;37879;52.986;6.282;2023-05-28T07:46:57;15.40;99.90
51825;DHT22;37879;52.986;6.282;2023-05-28T07:49:23;15.50;99.90
51825;DHT22;37879;52.986;6.282;2023-05-28T07:51:49;15.60;99.90
51825;DHT22;37879;52.986;6.282;2023-05-28T07:54:14;15.70;99.90
51825;DHT22;37879;52.986;6.282;2023-05-28T07:56:40;15.70;99.90
51825;DHT22;37879;52.986;6.282;2023-05-28T07:59:06;15.70;99.90
51825;DHT22;37879;52.986;6.282;2023-05-28T08:01:32;15.60;99.90
51825;DHT22;37879;52.986;6.282;2023-05-28T08:03:59;15.70;99.90
51825;DHT22;37879;52.986;6.282;2023-05-28T08:06:25;15.70;99.90
51825;DHT22;37879;52.986;6.282;2023-05-28T08:08:52;15.80;99.90
51825;DHT22;37879;52.986;6.282;2023-05-28T08:11:18;15.80;99.90
51825;DHT22;37879;52.986;6.282;2023-05-28T08:13:43;15.80;99.90
51825;DHT22;37879;52.986;6.282;2023-05-28T08:16:12;16.00;99.90
51825;DHT22;37879;52.986;6.282;2023-05-28T08:18:38;16.10;99.90
51825;DHT22;37879;52.986;6.282;2023-05-28T08:21:05;16.20;99.90
51825;DHT22;37879;52.986;6.282;2023-05-28T08:23:32;16.20;99.90
51825;DHT22;37879;52.986;6.282;2023-05-28T08:26:03;16.20;99.90
51825;DHT22;37879;52.986;6.282;2023-05-28T08:28:29;16.30;99.90
51825;DHT22;37879;52.986;6.282;2023-05-28T08:30:55;16.40;99.90
51825;DHT22;37879;52.986;6.282;2023-05-28T08:33:21;16.50;99.90
51825;DHT22;37879;52.986;6.282;2023-05-28T08:35:47;16.50;99.90
51825;DHT22;37879;52.986;6.282;2023-05-28T08:38:13;16.50;99.90
51825;DHT22;37879;52.986;6.282;2023-05-28T08:40:41;16.50;99.90
51825;DHT22;37879;52.986;6.282;2023-05-28T08:43:07;16.60;99.90
51825;DHT22;37879;52.986;6.282;2023-05-28T08:45:34;16.70;99.90
51825;DHT22;37879;52.986;6.282;2023-05-28T08:48:00;16.80;99.90
51825;DHT22;37879;52.986;6.282;2023-05-28T08:50:30;16.90;99.90
51825;DHT22;37879;52.986;6.282;2023-05-28T08:52:57;16.90;99.90
51825;DHT22;37879;52.986;6.282;2023-05-28T08:55:24;17.00;99.90
51825;DHT22;37879;52.986;6.282;2023-05-28T08:57:51;17.10;99.90
51825;DHT22;37879;52.986;6.282;2023-05-28T09:00:17;17.20;99.90
51825;DHT22;37879;52.986;6.282;2023-05-28T09:02:44;17.30;99.90
51825;DHT22;37879;52.986;6.282;2023-05-28T09:05:10;17.40;99.90
51825;DHT22;37879;52.986;6.282;2023-05-28T09:07:35;17.40;99.90
51825;DHT22;37879;52.986;6.282;2023-05-28T09:10:03;17.50;99.90
51825;DHT22;37879;52.986;6.282;2023-05-28T09:12:28;17.50;99.90
51825;DHT22;37879;52.986;6.282;2023-05-28T09:14:55;17.50;99.90
51825;DHT22;37879;52.986;6.282;2023-05-28T09:17:40;17.60;99.90
51825;DHT22;37879;52.986;6.282;2023-05-28T09:20:13;17.60;99.90
51825;DHT22;37879;52.986;6.282;2023-05-28T09:22:39;17.70;99.90
51825;DHT22;37879;52.986;6.282;2023-05-28T09:25:08;17.80;99.90
51825;DHT22;37879;52.986;6.282;2023-05-28T09:27:35;17.80;99.90
51825;DHT22;37879;52.986;6.282;2023-05-28T09:30:09;17.80;99.90
51825;DHT22;37879;52.986;6.282;2023-05-28T09:32:35;17.70;99.90
51825;DHT22;37879;52.986;6.282;2023-05-28T09:35:05;17.80;99.90
51825;DHT22;37879;52.986;6.282;2023-05-28T09:37:30;17.70;99.90
51825;DHT22;37879;52.986;6.282;2023-05-28T09:40:03;17.80;99.90
51825;DHT22;37879;52.986;6.282;2023-05-28T09:42:41;17.90;99.90
51825;DHT22;37879;52.986;6.282;2023-05-28T09:45:11;17.90;99.90
51825;DHT22;37879;52.986;6.282;2023-05-28T09:47:44;18.20;99.90
51825;DHT22;37879;52.986;6.282;2023-05-28T09:50:10;18.00;99.90
51825;DHT22;37879;52.986;6.282;2023-05-28T09:52:38;18.10;99.90
51825;DHT22;37879;52.986;6.282;2023-05-28T09:55:07;18.20;99.90
51825;DHT22;37879;52.986;6.282;2023-05-28T09:57:33;18.20;99.90
51825;DHT22;37879;52.986;6.282;2023-05-28T10:00:01;18.30;99.90
51825;DHT22;37879;52.986;6.282;2023-05-28T10:05:07;18.50;99.90
51825;DHT22;37879;52.986;6.282;2023-05-28T10:07:35;18.50;99.90
51825;DHT22;37879;52.986;6.282;2023-05-28T10:10:01;18.60;99.90
51825;DHT22;37879;52.986;6.282;2023-05-28T10:12:29;18.70;99.90
51825;DHT22;37879;52.986;6.282;2023-05-28T10:14:56;18.70;99.90
51825;DHT22;37879;52.986;6.282;2023-05-28T10:17:22;18.80;99.10
51825;DHT22;37879;52.986;6.282;2023-05-28T10:19:47;18.70;99.90
51825;DHT22;37879;52.986;6.282;2023-05-28T10:22:14;18.80;99.80
51825;DHT22;37879;52.986;6.282;2023-05-28T10:24:41;18.80;99.00
51825;DHT22;37879;52.986;6.282;2023-05-28T10:27:10;18.90;99.50
51825;DHT22;37879;52.986;6.282;2023-05-28T10:29:39;18.90;99.90
51825;DHT22;37879;52.986;6.282;2023-05-28T10:32:05;18.90;99.50
51825;DHT22;37879;52.986;6.282;2023-05-28T10:34:32;19.00;99.80
51825;DHT22;37879;52.986;6.282;2023-05-28T10:37:03;19.00;97.60
51825;DHT22;37879;52.986;6.282;2023-05-28T10:39:42;19.00;99.10
51825;DHT22;37879;52.986;6.282;2023-05-28T10:42:10;19.10;97.60
51825;DHT22;37879;52.986;6.282;2023-05-28T10:47:39;19.20;97.10
51825;DHT22;37879;52.986;6.282;2023-05-28T10:52:34;19.10;98.50
51825;DHT22;37879;52.986;6.282;2023-05-28T10:55:04;19.20;97.10
51825;DHT22;37879;52.986;6.282;2023-05-28T11:00:08;19.20;96.10
51825;DHT22;37879;52.986;6.282;2023-05-28T11:02:35;19.20;97.40
51825;DHT22;37879;52.986;6.282;2023-05-28T11:05:04;19.30;95.10
51825;DHT22;37879;52.986;6.282;2023-05-28T11:09:58;19.50;95.30
51825;DHT22;37879;52.986;6.282;2023-05-28T11:12:29;19.60;95.10
51825;DHT22;37879;52.986;6.282;2023-05-28T11:14:55;19.70;93.70
51825;DHT22;37879;52.986;6.282;2023-05-28T11:17:21;19.80;94.80
51825;DHT22;37879;52.986;6.282;2023-05-28T11:19:50;19.90;91.00
51825;DHT22;37879;52.986;6.282;2023-05-28T11:22:17;20.00;94.00
51825;DHT22;37879;52.986;6.282;2023-05-28T11:24:57;20.00;94.80
51825;DHT22;37879;52.986;6.282;2023-05-28T11:27:31;20.00;94.30
51825;DHT22;37879;52.986;6.282;2023-05-28T11:29:58;20.00;93.10
51825;DHT22;37879;52.986;6.282;2023-05-28T11:32:25;19.90;93.00
51825;DHT22;37879;52.986;6.282;2023-05-28T11:34:52;20.00;94.10
51825;DHT22;37879;52.986;6.282;2023-05-28T11:37:32;20.00;93.70
51825;DHT22;37879;52.986;6.282;2023-05-28T11:40:00;20.10;92.40
51825;DHT22;37879;52.986;6.282;2023-05-28T11:42:29;20.20;91.90
51825;DHT22;37879;52.986;6.282;2023-05-28T11:44:57;20.30;92.80
51825;DHT22;37879;52.986;6.282;2023-05-28T11:47:24;20.30;92.30
51825;DHT22;37879;52.986;6.282;2023-05-28T11:49:50;20.30;92.90
51825;DHT22;37879;52.986;6.282;2023-05-28T11:52:17;20.40;93.70
51825;DHT22;37879;52.986;6.282;2023-05-28T11:54:45;20.40;94.00
51825;DHT22;37879;52.986;6.282;2023-05-28T11:57:11;20.30;93.90
51825;DHT22;37879;52.986;6.282;2023-05-28T12:00:14;20.20;94.50
51825;DHT22;37879;52.986;6.282;2023-05-28T12:02:46;20.10;95.30
51825;DHT22;37879;52.986;6.282;2023-05-28T12:05:13;20.20;95.80
51825;DHT22;37879;52.986;6.282;2023-05-28T12:07:47;20.30;95.70
51825;DHT22;37879;52.986;6.282;2023-05-28T12:10:14;20.40;96.20
51825;DHT22;37879;52.986;6.282;2023-05-28T12:12:43;20.40;95.80
51825;DHT22;37879;52.986;6.282;2023-05-28T12:15:10;20.40;96.30
51825;DHT22;37879;52.986;6.282;2023-05-28T12:17:36;20.40;96.80
51825;DHT22;37879;52.986;6.282;2023-05-28T12:22:33;20.40;97.20
51825;DHT22;37879;52.986;6.282;2023-05-28T12:25:00;20.40;97.10
51825;DHT22;37879;52.986;6.282;2023-05-28T12:27:26;20.40;98.40
51825;DHT22;37879;52.986;6.282;2023-05-28T12:29:52;20.40;98.80
51825;DHT22;37879;52.986;6.282;2023-05-28T12:32:17;20.50;99.20
51825;DHT22;37879;52.986;6.282;2023-05-28T12:34:44;20.50;99.90
51825;DHT22;37879;52.986;6.282;2023-05-28T12:37:10;20.50;99.90
51825;DHT22;37879;52.986;6.282;2023-05-28T12:39:37;20.60;99.60
51825;DHT22;37879;52.986;6.282;2023-05-28T12:42:03;20.50;99.90
51825;DHT22;37879;52.986;6.282;2023-05-28T12:44:29;20.40;99.90
51825;DHT22;37879;52.986;6.282;2023-05-28T12:46:55;20.40;99.90
51825;DHT22;37879;52.986;6.282;2023-05-28T12:49:20;20.40;99.90
51825;DHT22;37879;52.986;6.282;2023-05-28T12:51:46;20.40;99.90
51825;DHT22;37879;52.986;6.282;2023-05-28T12:54:11;20.40;99.90
51825;DHT22;37879;52.986;6.282;2023-05-28T12:56:37;20.50;99.90
51825;DHT22;37879;52.986;6.282;2023-05-28T12:59:03;20.30;99.90
51825;DHT22;37879;52.986;6.282;2023-05-28T13:01:28;20.20;99.90
51825;DHT22;37879;52.986;6.282;2023-05-28T13:03:54;20.20;99.90
51825;DHT22;37879;52.986;6.282;2023-05-28T13:06:19;20.20;99.90
51825;DHT22;37879;52.986;6.282;2023-05-28T13:08:45;20.20;99.90
51825;DHT22;37879;52.986;6.282;2023-05-28T13:11:11;20.20;99.90
51825;DHT22;37879;52.986;6.282;2023-05-28T13:13:37;20.20;99.90
51825;DHT22;37879;52.986;6.282;2023-05-28T13:16:04;20.00;99.90
51825;DHT22;37879;52.986;6.282;2023-05-28T13:18:30;19.90;99.90
51825;DHT22;37879;52.986;6.282;2023-05-28T13:20:56;19.70;99.90
51825;DHT22;37879;52.986;6.282;2023-05-28T13:23:23;19.80;99.90
51825;DHT22;37879;52.986;6.282;2023-05-28T13:25:49;19.90;99.90
51825;DHT22;37879;52.986;6.282;2023-05-28T13:28:15;19.90;99.90
51825;DHT22;37879;52.986;6.282;2023-05-28T13:30:42;19.70;99.90
51825;DHT22;37879;52.986;6.282;2023-05-28T13:33:07;19.60;99.90
51825;DHT22;37879;52.986;6.282;2023-05-28T13:35:33;19.60;99.90
51825;DHT22;37879;52.986;6.282;2023-05-28T13:37:58;19.50;99.90
51825;DHT22;37879;52.986;6.282;2023-05-28T13:40:25;19.50;99.90
51825;DHT22;37879;52.986;6.282;2023-05-28T13:42:50;19.50;99.90
51825;DHT22;37879;52.986;6.282;2023-05-28T13:45:16;19.50;99.90
51825;DHT22;37879;52.986;6.282;2023-05-28T13:47:42;19.40;99.90
51825;DHT22;37879;52.986;6.282;2023-05-28T13:50:08;19.50;99.90
51825;DHT22;37879;52.986;6.282;2023-05-28T13:52:34;19.40;99.90
51825;DHT22;37879;52.986;6.282;2023-05-28T13:55:00;19.50;99.90
51825;DHT22;37879;52.986;6.282;2023-05-28T13:57:26;19.30;99.90
51825;DHT22;37879;52.986;6.282;2023-05-28T13:59:51;19.30;99.90
51825;DHT22;37879;52.986;6.282;2023-05-28T14:02:17;19.30;99.90
51825;DHT22;37879;52.986;6.282;2023-05-28T14:04:43;19.20;99.90
51825;DHT22;37879;52.986;6.282;2023-05-28T14:07:09;19.20;99.90
51825;DHT22;37879;52.986;6.282;2023-05-28T14:09:35;19.30;99.90
51825;DHT22;37879;52.986;6.282;2023-05-28T14:12:04;19.30;99.90
51825;DHT22;37879;52.986;6.282;2023-05-28T14:14:31;19.40;99.90
51825;DHT22;37879;52.986;6.282;2023-05-28T14:16:56;19.50;99.90
51825;DHT22;37879;52.986;6.282;2023-05-28T14:19:22;19.50;99.90
51825;DHT22;37879;52.986;6.282;2023-05-28T14:21:48;19.40;99.90
51825;DHT22;37879;52.986;6.282;2023-05-28T14:24:13;19.40;99.90
51825;DHT22;37879;52.986;6.282;2023-05-28T14:26:39;19.40;99.90
51825;DHT22;37879;52.986;6.282;2023-05-28T14:29:04;19.60;99.90
51825;DHT22;37879;52.986;6.282;2023-05-28T14:31:30;19.70;99.90
51825;DHT22;37879;52.986;6.282;2023-05-28T14:33:56;19.80;99.90
51825;DHT22;37879;52.986;6.282;2023-05-28T14:36:21;19.60;99.90
51825;DHT22;37879;52.986;6.282;2023-05-28T14:38:47;19.40;99.90
51825;DHT22;37879;52.986;6.282;2023-05-28T14:41:13;19.20;99.90
51825;DHT22;37879;52.986;6.282;2023-05-28T14:43:38;19.20;99.90
51825;DHT22;37879;52.986;6.282;2023-05-28T14:46:04;19.20;99.90
51825;DHT22;37879;52.986;6.282;2023-05-28T14:48:30;19.30;99.90
51825;DHT22;37879;52.986;6.282;2023-05-28T14:50:56;19.30;99.90
51825;DHT22;37879;52.986;6.282;2023-05-28T14:53:21;19.20;99.90
51825;DHT22;37879;52.986;6.282;2023-05-28T14:55:47;19.20;99.90
51825;DHT22;37879;52.986;6.282;2023-05-28T14:58:12;19.10;99.90
51825;DHT22;37879;52.986;6.282;2023-05-28T15:00:38;19.20;99.90
51825;DHT22;37879;52.986;6.282;2023-05-28T15:03:04;19.20;99.90
51825;DHT22;37879;52.986;6.282;2023-05-28T15:05:29;19.20;99.90
51825;DHT22;37879;52.986;6.282;2023-05-28T15:07:55;19.40;99.90
51825;DHT22;37879;52.986;6.282;2023-05-28T15:10:21;19.50;99.90
51825;DHT22;37879;52.986;6.282;2023-05-28T15:12:46;19.20;99.90
51825;DHT22;37879;52.986;6.282;2023-05-28T15:15:12;19.00;99.90
51825;DHT22;37879;52.986;6.282;2023-05-28T15:17:40;18.90;99.90
51825;DHT22;37879;52.986;6.282;2023-05-28T15:20:06;18.80;99.90
51825;DHT22;37879;52.986;6.282;2023-05-28T15:22:32;18.70;99.90
51825;DHT22;37879;52.986;6.282;2023-05-28T15:24:57;18.60;99.90
51825;DHT22;37879;52.986;6.282;2023-05-28T15:27:23;18.40;99.90
51825;DHT22;37879;52.986;6.282;2023-05-28T15:29:49;18.30;99.90
51825;DHT22;37879;52.986;6.282;2023-05-28T15:32:16;18.40;99.90
51825;DHT22;37879;52.986;6.282;2023-05-28T15:34:42;18.50;99.90
51825;DHT22;37879;52.986;6.282;2023-05-28T15:37:08;18.50;99.90
51825;DHT22;37879;52.986;6.282;2023-05-28T15:39:34;18.50;99.90
51825;DHT22;37879;52.986;6.282;2023-05-28T15:42:03;18.30;99.90